Second Mesa, Arizona
Current Conditions -  °F | °C
As of 5:16 AM on Saturday 20 Dec 2014 (Local Time) from KINW Reporting Station
Haze Haze  
Wind Chill: -6°   Ceiling: 200
Heat Index: -2°   Visibility: 0.75mi
Dew Point: -2°   Wind: 7mph
Humidity: 96%   Direction: 110°ESE
Pressure: 30.19"   Gusts: NA
Location:  35.82°N, 110.5°W
Report Text: KINW 201216Z AUTO 11006KT 3/4SM BR VV002 M02/M02 A3019 RMK AO2 T10171022
Loading
Personal Weather Stations






























Interactive Weather Map New forecast layout! Learn more

10-Day Weather Forecast

Advertisements
Track Severe Weather on mobile